sensor_id;sensor_type;location;lat;lon;timestamp;pressure;altitude;pressure_sealevel;temperature;humidity
46598;BME280;32318;48.858;8.252;2023-09-30T00:04:57;101151.53;;;19.07;70.52
46598;BME280;32318;48.858;8.252;2023-09-30T00:12:58;101148.81;;;19.07;70.62
46598;BME280;32318;48.858;8.252;2023-09-30T00:20:58;101146.94;;;19.07;70.86
46598;BME280;32318;48.858;8.252;2023-09-30T00:28:59;101150.47;;;19.08;70.54
46598;BME280;32318;48.858;8.252;2023-09-30T00:36:59;101155.88;;;19.08;70.73
46598;BME280;32318;48.858;8.252;2023-09-30T00:44:59;101152.94;;;19.03;70.86
46598;BME280;32318;48.858;8.252;2023-09-30T00:53:00;101155.41;;;18.98;70.94
46598;BME280;32318;48.858;8.252;2023-09-30T01:01:00;101160.03;;;19.04;70.88
46598;BME280;32318;48.858;8.252;2023-09-30T01:09:00;101172.53;;;19.05;70.09
46598;BME280;32318;48.858;8.252;2023-09-30T01:17:01;101170.41;;;19.00;70.18
46598;BME280;32318;48.858;8.252;2023-09-30T01:25:02;101156.25;;;18.98;70.07
46598;BME280;32318;48.858;8.252;2023-09-30T01:33:02;101169.06;;;18.89;69.95
46598;BME280;32318;48.858;8.252;2023-09-30T01:41:02;101164.69;;;18.88;70.83
46598;BME280;32318;48.858;8.252;2023-09-30T01:49:03;101168.41;;;18.87;70.90
46598;BME280;32318;48.858;8.252;2023-09-30T01:57:06;101165.28;;;18.90;70.91
46598;BME280;32318;48.858;8.252;2023-09-30T02:05:07;101175.81;;;18.78;71.86
46598;BME280;32318;48.858;8.252;2023-09-30T02:13:08;101176.03;;;18.77;71.66
46598;BME280;32318;48.858;8.252;2023-09-30T02:21:08;101166.88;;;18.78;72.58
46598;BME280;32318;48.858;8.252;2023-09-30T02:29:09;101166.50;;;18.81;72.42
46598;BME280;32318;48.858;8.252;2023-09-30T02:37:09;101180.75;;;18.68;73.13
46598;BME280;32318;48.858;8.252;2023-09-30T02:45:11;101179.38;;;18.57;73.82
46598;BME280;32318;48.858;8.252;2023-09-30T02:53:12;101189.84;;;18.60;73.70
46598;BME280;32318;48.858;8.252;2023-09-30T03:01:16;101182.94;;;18.58;74.33
46598;BME280;32318;48.858;8.252;2023-09-30T03:09:20;101200.00;;;18.58;73.57
46598;BME280;32318;48.858;8.252;2023-09-30T03:17:21;101196.28;;;18.59;73.41
46598;BME280;32318;48.858;8.252;2023-09-30T03:25:21;101182.09;;;18.57;73.22
46598;BME280;32318;48.858;8.252;2023-09-30T03:33:22;101172.06;;;18.51;73.35
46598;BME280;32318;48.858;8.252;2023-09-30T03:41:22;101187.75;;;18.41;73.67
46598;BME280;32318;48.858;8.252;2023-09-30T03:49:22;101185.84;;;18.34;73.99
46598;BME280;32318;48.858;8.252;2023-09-30T03:57:23;101196.66;;;18.34;73.51
46598;BME280;32318;48.858;8.252;2023-09-30T04:05:24;101209.38;;;18.19;74.75
46598;BME280;32318;48.858;8.252;2023-09-30T04:13:36;101197.66;;;18.12;74.55
46598;BME280;32318;48.858;8.252;2023-09-30T04:21:36;101209.06;;;18.07;74.85
46598;BME280;32318;48.858;8.252;2023-09-30T04:29:38;101216.13;;;17.93;76.02
46598;BME280;32318;48.858;8.252;2023-09-30T04:37:39;101228.91;;;17.99;75.14
46598;BME280;32318;48.858;8.252;2023-09-30T04:45:39;101226.28;;;17.91;74.84
46598;BME280;32318;48.858;8.252;2023-09-30T04:53:40;101225.06;;;17.79;74.65
46598;BME280;32318;48.858;8.252;2023-09-30T05:01:41;101233.38;;;17.62;74.94
46598;BME280;32318;48.858;8.252;2023-09-30T05:09:41;101225.34;;;17.54;76.35
46598;BME280;32318;48.858;8.252;2023-09-30T05:17:42;101229.16;;;17.45;76.81
46598;BME280;32318;48.858;8.252;2023-09-30T05:25:46;101238.84;;;17.39;76.12
46598;BME280;32318;48.858;8.252;2023-09-30T05:33:46;101243.69;;;17.29;76.84
46598;BME280;32318;48.858;8.252;2023-09-30T05:41:46;101250.06;;;17.13;75.87
46598;BME280;32318;48.858;8.252;2023-09-30T05:49:47;101226.53;;;17.06;76.01
46598;BME280;32318;48.858;8.252;2023-09-30T05:57:49;101260.22;;;17.11;76.12
46598;BME280;32318;48.858;8.252;2023-09-30T06:05:49;101270.72;;;17.05;76.79
46598;BME280;32318;48.858;8.252;2023-09-30T06:13:59;101266.28;;;17.13;76.67
46598;BME280;32318;48.858;8.252;2023-09-30T06:22:00;101305.94;;;17.27;75.67
46598;BME280;32318;48.858;8.252;2023-09-30T06:30:04;101312.81;;;17.30;74.84
46598;BME280;32318;48.858;8.252;2023-09-30T06:38:05;101289.47;;;17.22;74.88
46598;BME280;32318;48.858;8.252;2023-09-30T06:46:07;101311.25;;;17.20;74.34
46598;BME280;32318;48.858;8.252;2023-09-30T06:54:09;101282.19;;;17.22;74.93
46598;BME280;32318;48.858;8.252;2023-09-30T07:02:09;101295.22;;;17.19;74.36
46598;BME280;32318;48.858;8.252;2023-09-30T07:10:09;101306.06;;;17.11;74.25
46598;BME280;32318;48.858;8.252;2023-09-30T07:18:11;101324.41;;;17.15;74.12
46598;BME280;32318;48.858;8.252;2023-09-30T07:26:12;101319.50;;;17.19;74.00
46598;BME280;32318;48.858;8.252;2023-09-30T07:42:15;101330.63;;;17.39;72.16
46598;BME280;32318;48.858;8.252;2023-09-30T07:50:16;101334.09;;;17.48;71.57
46598;BME280;32318;48.858;8.252;2023-09-30T07:58:17;101326.00;;;17.48;71.21
46598;BME280;32318;48.858;8.252;2023-09-30T08:06:18;101341.56;;;17.61;70.54
46598;BME280;32318;48.858;8.252;2023-09-30T08:14:18;101325.66;;;17.66;70.09
46598;BME280;32318;48.858;8.252;2023-09-30T08:22:18;101319.25;;;17.82;69.31
46598;BME280;32318;48.858;8.252;2023-09-30T08:30:19;101297.75;;;17.88;69.08
46598;BME280;32318;48.858;8.252;2023-09-30T08:38:19;101314.16;;;18.02;68.81
46598;BME280;32318;48.858;8.252;2023-09-30T08:46:19;101320.56;;;18.16;68.91
46598;BME280;32318;48.858;8.252;2023-09-30T08:54:28;101332.56;;;18.43;68.45
46598;BME280;32318;48.858;8.252;2023-09-30T09:02:28;101330.38;;;18.54;68.07
46598;BME280;32318;48.858;8.252;2023-09-30T09:10:29;101321.22;;;18.70;67.87
46598;BME280;32318;48.858;8.252;2023-09-30T09:18:57;101311.41;;;18.90;66.92
46598;BME280;32318;48.858;8.252;2023-09-30T09:27:15;101298.00;;;18.97;65.65
46598;BME280;32318;48.858;8.252;2023-09-30T09:35:22;101298.75;;;19.12;64.20
46598;BME280;32318;48.858;8.252;2023-09-30T09:43:23;101301.66;;;19.33;64.49
46598;BME280;32318;48.858;8.252;2023-09-30T09:51:24;101307.84;;;19.55;63.11
46598;BME280;32318;48.858;8.252;2023-09-30T09:59:25;101308.44;;;19.50;62.64
46598;BME280;32318;48.858;8.252;2023-09-30T10:07:28;101294.91;;;19.50;62.88
46598;BME280;32318;48.858;8.252;2023-09-30T10:23:30;101289.88;;;19.82;61.78
46598;BME280;32318;48.858;8.252;2023-09-30T10:31:49;101288.97;;;20.03;61.01
46598;BME280;32318;48.858;8.252;2023-09-30T10:39:59;101271.84;;;19.96;62.04
46598;BME280;32318;48.858;8.252;2023-09-30T10:56:31;101269.00;;;20.11;61.48
46598;BME280;32318;48.858;8.252;2023-09-30T11:04:45;101261.28;;;20.15;59.63
46598;BME280;32318;48.858;8.252;2023-09-30T11:12:56;101247.75;;;20.15;58.90
46598;BME280;32318;48.858;8.252;2023-09-30T11:21:04;101243.59;;;20.26;58.72
46598;BME280;32318;48.858;8.252;2023-09-30T11:29:15;101253.22;;;20.35;57.84
46598;BME280;32318;48.858;8.252;2023-09-30T11:37:16;101255.16;;;20.68;57.60
46598;BME280;32318;48.858;8.252;2023-09-30T11:45:21;101258.28;;;20.65;57.10
46598;BME280;32318;48.858;8.252;2023-09-30T11:53:24;101251.47;;;20.96;56.08
46598;BME280;32318;48.858;8.252;2023-09-30T12:01:24;101252.50;;;20.88;56.34
46598;BME280;32318;48.858;8.252;2023-09-30T12:09:25;101247.06;;;20.88;55.97
46598;BME280;32318;48.858;8.252;2023-09-30T12:17:27;101245.81;;;20.97;56.87
46598;BME280;32318;48.858;8.252;2023-09-30T12:25:27;101233.50;;;21.02;55.77
46598;BME280;32318;48.858;8.252;2023-09-30T12:33:29;101242.69;;;21.00;55.15
46598;BME280;32318;48.858;8.252;2023-09-30T12:41:30;101233.91;;;20.78;55.69
46598;BME280;32318;48.858;8.252;2023-09-30T12:49:32;101225.34;;;20.88;55.31
46598;BME280;32318;48.858;8.252;2023-09-30T12:57:33;101219.50;;;21.05;54.48
46598;BME280;32318;48.858;8.252;2023-09-30T13:05:33;101204.06;;;20.98;55.03
46598;BME280;32318;48.858;8.252;2023-09-30T13:13:34;101199.44;;;21.19;54.16
46598;BME280;32318;48.858;8.252;2023-09-30T13:21:35;101198.19;;;21.22;51.98
46598;BME280;32318;48.858;8.252;2023-09-30T13:29:35;101198.56;;;21.39;51.07
46598;BME280;32318;48.858;8.252;2023-09-30T13:37:35;101213.56;;;21.55;52.06
46598;BME280;32318;48.858;8.252;2023-09-30T13:45:37;101215.03;;;21.64;51.01
46598;BME280;32318;48.858;8.252;2023-09-30T13:53:37;101196.41;;;21.74;50.36
46598;BME280;32318;48.858;8.252;2023-09-30T14:01:37;101182.59;;;21.76;50.52
46598;BME280;32318;48.858;8.252;2023-09-30T14:09:37;101167.44;;;21.93;50.53
46598;BME280;32318;48.858;8.252;2023-09-30T14:17:38;101154.72;;;21.87;50.41
46598;BME280;32318;48.858;8.252;2023-09-30T14:25:38;101140.25;;;21.93;49.42
46598;BME280;32318;48.858;8.252;2023-09-30T14:33:39;101132.72;;;21.96;49.30
46598;BME280;32318;48.858;8.252;2023-09-30T14:41:39;101130.44;;;21.92;48.86
46598;BME280;32318;48.858;8.252;2023-09-30T14:49:40;101135.63;;;22.01;48.65
46598;BME280;32318;48.858;8.252;2023-09-30T14:57:41;101139.44;;;21.93;47.47
46598;BME280;32318;48.858;8.252;2023-09-30T15:05:41;101139.00;;;21.89;47.82
46598;BME280;32318;48.858;8.252;2023-09-30T15:13:42;101142.97;;;21.93;48.35
46598;BME280;32318;48.858;8.252;2023-09-30T15:21:43;101130.03;;;21.89;47.72
46598;BME280;32318;48.858;8.252;2023-09-30T15:29:46;101134.91;;;21.80;47.19
46598;BME280;32318;48.858;8.252;2023-09-30T15:37:47;101145.34;;;21.76;47.46
46598;BME280;32318;48.858;8.252;2023-09-30T15:45:47;101151.88;;;21.75;48.74
46598;BME280;32318;48.858;8.252;2023-09-30T15:53:47;101142.31;;;21.59;48.92
46598;BME280;32318;48.858;8.252;2023-09-30T16:01:48;101136.25;;;21.51;49.65
46598;BME280;32318;48.858;8.252;2023-09-30T16:09:49;101136.69;;;21.47;50.17
46598;BME280;32318;48.858;8.252;2023-09-30T16:17:49;101130.84;;;21.44;49.72
46598;BME280;32318;48.858;8.252;2023-09-30T16:25:49;101132.19;;;21.14;50.12
46598;BME280;32318;48.858;8.252;2023-09-30T16:33:49;101140.56;;;21.06;50.94
46598;BME280;32318;48.858;8.252;2023-09-30T16:41:50;101152.06;;;20.95;51.80
46598;BME280;32318;48.858;8.252;2023-09-30T16:49:50;101157.94;;;20.78;52.50
46598;BME280;32318;48.858;8.252;2023-09-30T16:57:50;101154.78;;;20.55;53.08
46598;BME280;32318;48.858;8.252;2023-09-30T17:05:51;101146.81;;;20.26;54.19
46598;BME280;32318;48.858;8.252;2023-09-30T17:13:51;101146.75;;;19.99;55.26
46598;BME280;32318;48.858;8.252;2023-09-30T17:21:52;101157.50;;;19.72;56.41
46598;BME280;32318;48.858;8.252;2023-09-30T17:29:52;101155.47;;;19.46;57.06
46598;BME280;32318;48.858;8.252;2023-09-30T17:37:52;101159.59;;;19.35;57.45
46598;BME280;32318;48.858;8.252;2023-09-30T17:45:52;101161.50;;;19.06;58.86
46598;BME280;32318;48.858;8.252;2023-09-30T17:53:53;101152.63;;;18.91;60.55
46598;BME280;32318;48.858;8.252;2023-09-30T18:01:53;101158.63;;;18.86;60.94
46598;BME280;32318;48.858;8.252;2023-09-30T18:09:53;101166.81;;;18.71;61.41
46598;BME280;32318;48.858;8.252;2023-09-30T18:17:54;101176.31;;;18.60;61.51
46598;BME280;32318;48.858;8.252;2023-09-30T18:25:54;101180.31;;;18.43;62.00
46598;BME280;32318;48.858;8.252;2023-09-30T18:33:55;101198.00;;;18.24;62.23
46598;BME280;32318;48.858;8.252;2023-09-30T18:41:55;101201.56;;;18.09;63.40
46598;BME280;32318;48.858;8.252;2023-09-30T18:49:55;101207.50;;;17.98;63.30
46598;BME280;32318;48.858;8.252;2023-09-30T18:57:56;101202.06;;;17.83;63.16
46598;BME280;32318;48.858;8.252;2023-09-30T19:05:56;101209.34;;;17.67;63.78
46598;BME280;32318;48.858;8.252;2023-09-30T19:13:56;101211.84;;;17.54;64.36
46598;BME280;32318;48.858;8.252;2023-09-30T19:21:58;101220.06;;;17.46;63.91
46598;BME280;32318;48.858;8.252;2023-09-30T19:29:59;101220.91;;;17.31;65.00
46598;BME280;32318;48.858;8.252;2023-09-30T19:38:00;101216.28;;;17.17;65.15
46598;BME280;32318;48.858;8.252;2023-09-30T19:46:01;101222.44;;;17.11;65.12
46598;BME280;32318;48.858;8.252;2023-09-30T19:54:02;101215.44;;;17.01;65.46
46598;BME280;32318;48.858;8.252;2023-09-30T20:02:03;101212.81;;;16.93;65.64
46598;BME280;32318;48.858;8.252;2023-09-30T20:10:03;101208.13;;;16.87;65.71
46598;BME280;32318;48.858;8.252;2023-09-30T20:18:04;101216.03;;;16.88;66.60
46598;BME280;32318;48.858;8.252;2023-09-30T20:26:04;101218.44;;;16.83;66.69
46598;BME280;32318;48.858;8.252;2023-09-30T20:34:06;101206.97;;;16.81;66.81
46598;BME280;32318;48.858;8.252;2023-09-30T20:42:08;101209.22;;;16.77;66.97
46598;BME280;32318;48.858;8.252;2023-09-30T20:50:08;101198.31;;;16.71;67.18
46598;BME280;32318;48.858;8.252;2023-09-30T20:58:08;101207.94;;;16.65;67.63
46598;BME280;32318;48.858;8.252;2023-09-30T21:06:09;101208.50;;;16.60;67.54
46598;BME280;32318;48.858;8.252;2023-09-30T21:14:09;101217.50;;;16.53;67.79
46598;BME280;32318;48.858;8.252;2023-09-30T21:22:09;101229.69;;;16.40;68.34
46598;BME280;32318;48.858;8.252;2023-09-30T21:30:10;101243.22;;;16.32;67.68
46598;BME280;32318;48.858;8.252;2023-09-30T21:38:10;101253.75;;;16.19;67.91
46598;BME280;32318;48.858;8.252;2023-09-30T21:46:11;101253.94;;;16.09;68.49
46598;BME280;32318;48.858;8.252;2023-09-30T21:54:12;101255.50;;;16.03;69.04
46598;BME280;32318;48.858;8.252;2023-09-30T22:02:12;101254.47;;;16.04;68.34
46598;BME280;32318;48.858;8.252;2023-09-30T22:10:12;101257.72;;;15.91;69.17
46598;BME280;32318;48.858;8.252;2023-09-30T22:18:13;101265.50;;;15.86;69.51
46598;BME280;32318;48.858;8.252;2023-09-30T22:26:14;101264.97;;;15.82;69.50
46598;BME280;32318;48.858;8.252;2023-09-30T22:34:15;101261.47;;;15.82;69.29
46598;BME280;32318;48.858;8.252;2023-09-30T22:42:15;101264.31;;;15.80;69.37
46598;BME280;32318;48.858;8.252;2023-09-30T22:50:17;101265.97;;;15.81;69.46
46598;BME280;32318;48.858;8.252;2023-09-30T22:58:18;101264.66;;;15.77;69.72
46598;BME280;32318;48.858;8.252;2023-09-30T23:06:18;101260.81;;;15.72;69.31
46598;BME280;32318;48.858;8.252;2023-09-30T23:14:20;101265.03;;;15.66;69.64
46598;BME280;32318;48.858;8.252;2023-09-30T23:22:20;101266.38;;;15.62;69.92
46598;BME280;32318;48.858;8.252;2023-09-30T23:38:25;101257.50;;;15.45;70.21
46598;BME280;32318;48.858;8.252;2023-09-30T23:46:25;101241.19;;;15.38;70.08
46598;BME280;32318;48.858;8.252;2023-09-30T23:54:26;101252.66;;;15.32;70.51
